sensor_id;sensor_type;location;lat;lon;timestamp;P1;durP1;ratioP1;P2;durP2;ratioP2
71464;SDS011;59274;49.874;9.154;2022-08-19T00:01:52;20.07;;;12.53;;
71464;SDS011;59274;49.874;9.154;2022-08-19T00:04:23;18.13;;;10.77;;
71464;SDS011;59274;49.874;9.154;2022-08-19T00:06:50;15.55;;;10.90;;
71464;SDS011;59274;49.874;9.154;2022-08-19T00:09:16;16.58;;;11.45;;
71464;SDS011;59274;49.874;9.154;2022-08-19T00:11:44;18.40;;;11.43;;
71464;SDS011;59274;49.874;9.154;2022-08-19T00:14:12;18.48;;;11.68;;
71464;SDS011;59274;49.874;9.154;2022-08-19T00:16:40;18.50;;;12.02;;
71464;SDS011;59274;49.874;9.154;2022-08-19T00:19:07;17.90;;;12.23;;
71464;SDS011;59274;49.874;9.154;2022-08-19T00:21:33;17.38;;;11.35;;
71464;SDS011;59274;49.874;9.154;2022-08-19T00:24:05;16.67;;;11.70;;
71464;SDS011;59274;49.874;9.154;2022-08-19T00:26:35;17.95;;;11.40;;
71464;SDS011;59274;49.874;9.154;2022-08-19T00:29:01;19.95;;;12.82;;
71464;SDS011;59274;49.874;9.154;2022-08-19T00:31:28;20.13;;;12.73;;
71464;SDS011;59274;49.874;9.154;2022-08-19T00:33:56;20.55;;;13.38;;
71464;SDS011;59274;49.874;9.154;2022-08-19T00:36:22;21.43;;;13.77;;
71464;SDS011;59274;49.874;9.154;2022-08-19T00:38:47;21.08;;;12.95;;
71464;SDS011;59274;49.874;9.154;2022-08-19T00:41:14;19.93;;;13.50;;
71464;SDS011;59274;49.874;9.154;2022-08-19T00:43:42;18.42;;;12.15;;
71464;SDS011;59274;49.874;9.154;2022-08-19T00:46:08;20.83;;;12.93;;
71464;SDS011;59274;49.874;9.154;2022-08-19T00:48:34;22.00;;;13.52;;
71464;SDS011;59274;49.874;9.154;2022-08-19T00:51:01;21.63;;;13.48;;
71464;SDS011;59274;49.874;9.154;2022-08-19T00:53:27;21.20;;;14.00;;
71464;SDS011;59274;49.874;9.154;2022-08-19T00:55:56;21.98;;;13.88;;
71464;SDS011;59274;49.874;9.154;2022-08-19T00:58:26;25.75;;;15.40;;
71464;SDS011;59274;49.874;9.154;2022-08-19T01:00:55;23.52;;;14.88;;
71464;SDS011;59274;49.874;9.154;2022-08-19T01:03:20;27.60;;;15.15;;
71464;SDS011;59274;49.874;9.154;2022-08-19T01:05:47;24.65;;;15.25;;
71464;SDS011;59274;49.874;9.154;2022-08-19T01:08:17;26.63;;;14.07;;
71464;SDS011;59274;49.874;9.154;2022-08-19T01:10:48;23.83;;;14.38;;
71464;SDS011;59274;49.874;9.154;2022-08-19T01:13:20;24.33;;;14.48;;
71464;SDS011;59274;49.874;9.154;2022-08-19T01:15:50;23.17;;;14.80;;
71464;SDS011;59274;49.874;9.154;2022-08-19T01:18:20;24.67;;;14.95;;
71464;SDS011;59274;49.874;9.154;2022-08-19T01:20:46;22.98;;;14.50;;
71464;SDS011;59274;49.874;9.154;2022-08-19T01:23:13;24.52;;;14.88;;
71464;SDS011;59274;49.874;9.154;2022-08-19T01:25:42;22.92;;;14.73;;
71464;SDS011;59274;49.874;9.154;2022-08-19T01:28:30;24.42;;;14.27;;
71464;SDS011;59274;49.874;9.154;2022-08-19T01:30:55;26.25;;;14.95;;
71464;SDS011;59274;49.874;9.154;2022-08-19T01:33:21;24.25;;;14.18;;
71464;SDS011;59274;49.874;9.154;2022-08-19T01:35:47;23.57;;;14.60;;
71464;SDS011;59274;49.874;9.154;2022-08-19T01:38:24;23.88;;;14.63;;
71464;SDS011;59274;49.874;9.154;2022-08-19T01:40:51;25.15;;;14.45;;
71464;SDS011;59274;49.874;9.154;2022-08-19T01:43:20;23.75;;;14.90;;
71464;SDS011;59274;49.874;9.154;2022-08-19T01:45:46;23.00;;;14.00;;
71464;SDS011;59274;49.874;9.154;2022-08-19T01:48:12;25.90;;;15.32;;
71464;SDS011;59274;49.874;9.154;2022-08-19T01:50:38;23.60;;;13.97;;
71464;SDS011;59274;49.874;9.154;2022-08-19T01:53:05;23.00;;;13.57;;
71464;SDS011;59274;49.874;9.154;2022-08-19T01:55:32;23.92;;;14.52;;
71464;SDS011;59274;49.874;9.154;2022-08-19T01:58:01;24.58;;;14.10;;
71464;SDS011;59274;49.874;9.154;2022-08-19T02:00:30;22.85;;;14.68;;
71464;SDS011;59274;49.874;9.154;2022-08-19T02:02:57;23.95;;;14.30;;
71464;SDS011;59274;49.874;9.154;2022-08-19T02:05:24;21.58;;;14.85;;
71464;SDS011;59274;49.874;9.154;2022-08-19T02:07:49;23.53;;;14.50;;
71464;SDS011;59274;49.874;9.154;2022-08-19T02:10:20;22.10;;;14.45;;
71464;SDS011;59274;49.874;9.154;2022-08-19T02:12:47;22.88;;;14.05;;
71464;SDS011;59274;49.874;9.154;2022-08-19T02:15:14;23.55;;;14.48;;
71464;SDS011;59274;49.874;9.154;2022-08-19T02:17:40;21.60;;;14.10;;
71464;SDS011;59274;49.874;9.154;2022-08-19T02:20:06;21.65;;;15.13;;
71464;SDS011;59274;49.874;9.154;2022-08-19T02:22:33;22.35;;;14.35;;
71464;SDS011;59274;49.874;9.154;2022-08-19T02:25:00;22.65;;;14.27;;
71464;SDS011;59274;49.874;9.154;2022-08-19T02:27:26;23.27;;;14.38;;
71464;SDS011;59274;49.874;9.154;2022-08-19T02:29:52;24.50;;;14.65;;
71464;SDS011;59274;49.874;9.154;2022-08-19T02:32:18;23.10;;;14.27;;
71464;SDS011;59274;49.874;9.154;2022-08-19T02:34:45;21.17;;;13.38;;
71464;SDS011;59274;49.874;9.154;2022-08-19T02:37:11;20.75;;;13.57;;
71464;SDS011;59274;49.874;9.154;2022-08-19T02:39:57;23.52;;;13.45;;
71464;SDS011;59274;49.874;9.154;2022-08-19T02:42:23;24.52;;;14.48;;
71464;SDS011;59274;49.874;9.154;2022-08-19T02:44:49;25.60;;;14.00;;
71464;SDS011;59274;49.874;9.154;2022-08-19T02:47:15;23.13;;;13.53;;
71464;SDS011;59274;49.874;9.154;2022-08-19T02:49:40;19.45;;;12.70;;
71464;SDS011;59274;49.874;9.154;2022-08-19T02:52:06;21.40;;;13.63;;
71464;SDS011;59274;49.874;9.154;2022-08-19T02:54:32;22.25;;;13.18;;
71464;SDS011;59274;49.874;9.154;2022-08-19T02:56:57;23.60;;;12.90;;
71464;SDS011;59274;49.874;9.154;2022-08-19T02:59:24;21.02;;;12.40;;
71464;SDS011;59274;49.874;9.154;2022-08-19T03:01:51;19.45;;;12.07;;
71464;SDS011;59274;49.874;9.154;2022-08-19T03:04:17;21.90;;;12.90;;
71464;SDS011;59274;49.874;9.154;2022-08-19T03:06:43;19.47;;;12.40;;
71464;SDS011;59274;49.874;9.154;2022-08-19T03:09:10;20.27;;;12.50;;
71464;SDS011;59274;49.874;9.154;2022-08-19T03:11:37;23.48;;;13.93;;
71464;SDS011;59274;49.874;9.154;2022-08-19T03:14:03;20.92;;;13.15;;
71464;SDS011;59274;49.874;9.154;2022-08-19T03:16:31;21.98;;;13.40;;
71464;SDS011;59274;49.874;9.154;2022-08-19T03:18:58;21.37;;;12.97;;
71464;SDS011;59274;49.874;9.154;2022-08-19T03:21:30;21.48;;;13.23;;
71464;SDS011;59274;49.874;9.154;2022-08-19T03:24:03;22.95;;;13.98;;
71464;SDS011;59274;49.874;9.154;2022-08-19T03:26:31;23.80;;;13.82;;
71464;SDS011;59274;49.874;9.154;2022-08-19T03:29:04;23.40;;;13.50;;
71464;SDS011;59274;49.874;9.154;2022-08-19T03:31:30;20.93;;;13.47;;
71464;SDS011;59274;49.874;9.154;2022-08-19T03:33:56;22.50;;;13.50;;
71464;SDS011;59274;49.874;9.154;2022-08-19T03:36:23;22.10;;;13.13;;
71464;SDS011;59274;49.874;9.154;2022-08-19T03:38:52;20.60;;;12.82;;
71464;SDS011;59274;49.874;9.154;2022-08-19T03:41:27;22.83;;;14.23;;
71464;SDS011;59274;49.874;9.154;2022-08-19T03:43:55;22.90;;;13.20;;
71464;SDS011;59274;49.874;9.154;2022-08-19T03:46:23;22.13;;;12.95;;
71464;SDS011;59274;49.874;9.154;2022-08-19T03:48:51;21.90;;;13.00;;
71464;SDS011;59274;49.874;9.154;2022-08-19T03:53:49;23.15;;;13.68;;
71464;SDS011;59274;49.874;9.154;2022-08-19T03:56:16;22.73;;;13.80;;
71464;SDS011;59274;49.874;9.154;2022-08-19T03:58:42;22.75;;;12.85;;
71464;SDS011;59274;49.874;9.154;2022-08-19T04:01:10;20.73;;;12.57;;
71464;SDS011;59274;49.874;9.154;2022-08-19T04:03:38;23.52;;;13.43;;
71464;SDS011;59274;49.874;9.154;2022-08-19T04:06:11;22.50;;;13.38;;
71464;SDS011;59274;49.874;9.154;2022-08-19T04:08:39;24.80;;;13.07;;
71464;SDS011;59274;49.874;9.154;2022-08-19T04:11:09;23.00;;;13.50;;
71464;SDS011;59274;49.874;9.154;2022-08-19T04:13:39;22.48;;;12.95;;
71464;SDS011;59274;49.874;9.154;2022-08-19T04:16:08;21.08;;;13.25;;
71464;SDS011;59274;49.874;9.154;2022-08-19T04:18:35;23.95;;;13.55;;
71464;SDS011;59274;49.874;9.154;2022-08-19T04:21:01;22.80;;;12.87;;
71464;SDS011;59274;49.874;9.154;2022-08-19T04:23:27;20.67;;;12.13;;
71464;SDS011;59274;49.874;9.154;2022-08-19T04:25:53;20.20;;;12.23;;
71464;SDS011;59274;49.874;9.154;2022-08-19T04:28:19;19.70;;;11.83;;
71464;SDS011;59274;49.874;9.154;2022-08-19T04:30:47;19.40;;;12.10;;
71464;SDS011;59274;49.874;9.154;2022-08-19T04:33:15;20.48;;;12.27;;
71464;SDS011;59274;49.874;9.154;2022-08-19T04:35:44;19.33;;;11.95;;
71464;SDS011;59274;49.874;9.154;2022-08-19T04:38:12;21.08;;;13.05;;
71464;SDS011;59274;49.874;9.154;2022-08-19T04:40:40;19.60;;;11.60;;
71464;SDS011;59274;49.874;9.154;2022-08-19T04:43:25;20.38;;;12.10;;
71464;SDS011;59274;49.874;9.154;2022-08-19T04:45:51;20.98;;;12.23;;
71464;SDS011;59274;49.874;9.154;2022-08-19T04:48:17;20.45;;;12.18;;
71464;SDS011;59274;49.874;9.154;2022-08-19T04:50:47;18.35;;;12.35;;
71464;SDS011;59274;49.874;9.154;2022-08-19T04:53:13;20.00;;;12.07;;
71464;SDS011;59274;49.874;9.154;2022-08-19T04:55:39;18.80;;;11.50;;
71464;SDS011;59274;49.874;9.154;2022-08-19T04:58:06;19.30;;;11.97;;
71464;SDS011;59274;49.874;9.154;2022-08-19T05:00:32;18.48;;;10.73;;
71464;SDS011;59274;49.874;9.154;2022-08-19T05:02:57;18.90;;;10.87;;
71464;SDS011;59274;49.874;9.154;2022-08-19T05:05:23;19.73;;;12.50;;
71464;SDS011;59274;49.874;9.154;2022-08-19T05:07:48;19.13;;;11.65;;
71464;SDS011;59274;49.874;9.154;2022-08-19T05:10:14;21.50;;;12.63;;
71464;SDS011;59274;49.874;9.154;2022-08-19T05:12:39;19.48;;;11.80;;
71464;SDS011;59274;49.874;9.154;2022-08-19T05:15:05;20.95;;;11.65;;
71464;SDS011;59274;49.874;9.154;2022-08-19T05:17:33;18.15;;;11.55;;
71464;SDS011;59274;49.874;9.154;2022-08-19T05:19:59;18.50;;;11.15;;
71464;SDS011;59274;49.874;9.154;2022-08-19T05:22:51;16.98;;;11.10;;
71464;SDS011;59274;49.874;9.154;2022-08-19T05:25:18;20.10;;;11.03;;
71464;SDS011;59274;49.874;9.154;2022-08-19T05:27:45;17.58;;;10.45;;
71464;SDS011;59274;49.874;9.154;2022-08-19T05:30:11;19.40;;;11.05;;
71464;SDS011;59274;49.874;9.154;2022-08-19T05:32:37;19.50;;;10.65;;
71464;SDS011;59274;49.874;9.154;2022-08-19T05:35:04;19.33;;;11.13;;
71464;SDS011;59274;49.874;9.154;2022-08-19T05:37:30;20.30;;;11.27;;
71464;SDS011;59274;49.874;9.154;2022-08-19T05:39:56;19.33;;;11.65;;
71464;SDS011;59274;49.874;9.154;2022-08-19T05:42:22;18.93;;;11.67;;
71464;SDS011;59274;49.874;9.154;2022-08-19T05:44:48;20.50;;;11.57;;
71464;SDS011;59274;49.874;9.154;2022-08-19T05:47:14;19.33;;;11.52;;
71464;SDS011;59274;49.874;9.154;2022-08-19T05:49:41;19.25;;;11.40;;
71464;SDS011;59274;49.874;9.154;2022-08-19T05:52:09;18.90;;;11.32;;
71464;SDS011;59274;49.874;9.154;2022-08-19T05:54:38;17.02;;;10.52;;
71464;SDS011;59274;49.874;9.154;2022-08-19T05:57:08;18.42;;;10.30;;
71464;SDS011;59274;49.874;9.154;2022-08-19T05:59:34;16.65;;;11.02;;
71464;SDS011;59274;49.874;9.154;2022-08-19T06:02:00;20.23;;;11.48;;
71464;SDS011;59274;49.874;9.154;2022-08-19T06:04:27;20.17;;;10.60;;
71464;SDS011;59274;49.874;9.154;2022-08-19T06:06:53;15.90;;;9.98;;
71464;SDS011;59274;49.874;9.154;2022-08-19T06:09:20;17.55;;;10.13;;
71464;SDS011;59274;49.874;9.154;2022-08-19T06:14:20;20.75;;;10.95;;
71464;SDS011;59274;49.874;9.154;2022-08-19T06:16:51;18.13;;;10.82;;
71464;SDS011;59274;49.874;9.154;2022-08-19T06:19:18;17.50;;;11.13;;
71464;SDS011;59274;49.874;9.154;2022-08-19T06:21:45;16.85;;;10.10;;
71464;SDS011;59274;49.874;9.154;2022-08-19T06:24:13;18.35;;;10.98;;
71464;SDS011;59274;49.874;9.154;2022-08-19T06:26:41;16.30;;;10.07;;
71464;SDS011;59274;49.874;9.154;2022-08-19T06:29:10;21.45;;;10.45;;
71464;SDS011;59274;49.874;9.154;2022-08-19T06:31:40;17.30;;;10.70;;
71464;SDS011;59274;49.874;9.154;2022-08-19T06:34:07;16.10;;;10.20;;
71464;SDS011;59274;49.874;9.154;2022-08-19T06:36:36;16.70;;;10.95;;
71464;SDS011;59274;49.874;9.154;2022-08-19T06:39:10;18.13;;;11.15;;
71464;SDS011;59274;49.874;9.154;2022-08-19T06:41:42;16.90;;;10.15;;
71464;SDS011;59274;49.874;9.154;2022-08-19T06:44:10;22.83;;;11.93;;
71464;SDS011;59274;49.874;9.154;2022-08-19T06:46:37;19.23;;;9.80;;
71464;SDS011;59274;49.874;9.154;2022-08-19T06:49:03;17.77;;;10.85;;
71464;SDS011;59274;49.874;9.154;2022-08-19T06:51:29;15.13;;;9.80;;
71464;SDS011;59274;49.874;9.154;2022-08-19T06:53:56;17.25;;;9.73;;
71464;SDS011;59274;49.874;9.154;2022-08-19T06:56:26;15.15;;;10.32;;
71464;SDS011;59274;49.874;9.154;2022-08-19T06:59:09;16.10;;;10.63;;
71464;SDS011;59274;49.874;9.154;2022-08-19T07:01:37;15.50;;;10.40;;
71464;SDS011;59274;49.874;9.154;2022-08-19T07:04:06;17.13;;;9.95;;
71464;SDS011;59274;49.874;9.154;2022-08-19T07:06:33;15.25;;;9.52;;
71464;SDS011;59274;49.874;9.154;2022-08-19T07:08:59;17.50;;;10.65;;
71464;SDS011;59274;49.874;9.154;2022-08-19T07:11:25;17.83;;;10.23;;
71464;SDS011;59274;49.874;9.154;2022-08-19T07:13:54;16.05;;;9.70;;
71464;SDS011;59274;49.874;9.154;2022-08-19T07:16:20;16.33;;;10.27;;
71464;SDS011;59274;49.874;9.154;2022-08-19T07:18:47;16.07;;;9.40;;
71464;SDS011;59274;49.874;9.154;2022-08-19T07:21:18;13.82;;;9.88;;
71464;SDS011;59274;49.874;9.154;2022-08-19T07:23:46;15.27;;;9.85;;
71464;SDS011;59274;49.874;9.154;2022-08-19T07:26:17;14.88;;;9.18;;
71464;SDS011;59274;49.874;9.154;2022-08-19T07:28:46;15.05;;;10.02;;
71464;SDS011;59274;49.874;9.154;2022-08-19T07:31:13;16.00;;;9.27;;
71464;SDS011;59274;49.874;9.154;2022-08-19T07:33:46;17.65;;;10.25;;
71464;SDS011;59274;49.874;9.154;2022-08-19T07:36:14;15.05;;;9.68;;
71464;SDS011;59274;49.874;9.154;2022-08-19T07:38:43;16.25;;;9.57;;
71464;SDS011;59274;49.874;9.154;2022-08-19T07:41:16;15.35;;;10.02;;
71464;SDS011;59274;49.874;9.154;2022-08-19T07:43:45;16.30;;;9.10;;
71464;SDS011;59274;49.874;9.154;2022-08-19T07:46:12;16.10;;;9.35;;
71464;SDS011;59274;49.874;9.154;2022-08-19T07:48:39;13.88;;;9.52;;
71464;SDS011;59274;49.874;9.154;2022-08-19T07:51:07;14.73;;;9.68;;
71464;SDS011;59274;49.874;9.154;2022-08-19T07:53:35;15.07;;;9.18;;
71464;SDS011;59274;49.874;9.154;2022-08-19T07:56:01;15.93;;;9.00;;
71464;SDS011;59274;49.874;9.154;2022-08-19T07:58:29;16.30;;;9.75;;
71464;SDS011;59274;49.874;9.154;2022-08-19T08:00:56;14.07;;;9.02;;
71464;SDS011;59274;49.874;9.154;2022-08-19T08:03:22;15.52;;;9.38;;
71464;SDS011;59274;49.874;9.154;2022-08-19T08:06:08;15.18;;;9.10;;
71464;SDS011;59274;49.874;9.154;2022-08-19T08:08:53;13.70;;;8.37;;
71464;SDS011;59274;49.874;9.154;2022-08-19T08:11:41;17.85;;;8.88;;
71464;SDS011;59274;49.874;9.154;2022-08-19T08:14:14;15.45;;;9.02;;
71464;SDS011;59274;49.874;9.154;2022-08-19T08:16:46;13.63;;;8.77;;
71464;SDS011;59274;49.874;9.154;2022-08-19T08:19:12;14.77;;;9.18;;
71464;SDS011;59274;49.874;9.154;2022-08-19T08:21:42;15.45;;;9.50;;
71464;SDS011;59274;49.874;9.154;2022-08-19T08:24:08;14.50;;;9.13;;
71464;SDS011;59274;49.874;9.154;2022-08-19T08:26:34;14.15;;;8.75;;
71464;SDS011;59274;49.874;9.154;2022-08-19T08:29:00;14.47;;;9.37;;
71464;SDS011;59274;49.874;9.154;2022-08-19T08:31:26;14.13;;;8.45;;
71464;SDS011;59274;49.874;9.154;2022-08-19T08:33:51;12.80;;;7.47;;
71464;SDS011;59274;49.874;9.154;2022-08-19T08:36:17;14.25;;;8.05;;
71464;SDS011;59274;49.874;9.154;2022-08-19T08:38:43;14.00;;;8.40;;
71464;SDS011;59274;49.874;9.154;2022-08-19T08:41:21;12.48;;;8.00;;
71464;SDS011;59274;49.874;9.154;2022-08-19T08:44:03;12.20;;;7.40;;
71464;SDS011;59274;49.874;9.154;2022-08-19T08:46:49;13.40;;;8.55;;
71464;SDS011;59274;49.874;9.154;2022-08-19T08:49:32;13.75;;;8.50;;
71464;SDS011;59274;49.874;9.154;2022-08-19T08:52:08;12.50;;;7.30;;
71464;SDS011;59274;49.874;9.154;2022-08-19T08:54:40;14.85;;;7.53;;
71464;SDS011;59274;49.874;9.154;2022-08-19T08:57:15;13.57;;;7.57;;
71464;SDS011;59274;49.874;9.154;2022-08-19T08:59:45;12.52;;;7.80;;
71464;SDS011;59274;49.874;9.154;2022-08-19T09:02:17;14.68;;;7.85;;
71464;SDS011;59274;49.874;9.154;2022-08-19T09:04:43;13.23;;;7.50;;
71464;SDS011;59274;49.874;9.154;2022-08-19T09:09:58;12.30;;;6.80;;
71464;SDS011;59274;49.874;9.154;2022-08-19T09:12:34;14.35;;;7.20;;
71464;SDS011;59274;49.874;9.154;2022-08-19T09:15:12;11.95;;;7.18;;
71464;SDS011;59274;49.874;9.154;2022-08-19T09:17:39;12.90;;;6.95;;
71464;SDS011;59274;49.874;9.154;2022-08-19T09:20:26;12.48;;;6.97;;
71464;SDS011;59274;49.874;9.154;2022-08-19T09:22:50;12.15;;;6.57;;
71464;SDS011;59274;49.874;9.154;2022-08-19T09:25:17;10.97;;;6.20;;
71464;SDS011;59274;49.874;9.154;2022-08-19T09:27:48;10.27;;;5.68;;
71464;SDS011;59274;49.874;9.154;2022-08-19T09:30:16;10.05;;;5.05;;
71464;SDS011;59274;49.874;9.154;2022-08-19T09:32:44;9.73;;;5.03;;
71464;SDS011;59274;49.874;9.154;2022-08-19T09:35:10;20.10;;;6.77;;
71464;SDS011;59274;49.874;9.154;2022-08-19T09:37:37;11.20;;;5.82;;
71464;SDS011;59274;49.874;9.154;2022-08-19T09:40:04;8.98;;;4.53;;
71464;SDS011;59274;49.874;9.154;2022-08-19T09:42:29;8.75;;;4.85;;
71464;SDS011;59274;49.874;9.154;2022-08-19T09:44:55;8.40;;;4.90;;
71464;SDS011;59274;49.874;9.154;2022-08-19T09:47:20;10.03;;;4.97;;
71464;SDS011;59274;49.874;9.154;2022-08-19T09:49:46;9.00;;;4.03;;
71464;SDS011;59274;49.874;9.154;2022-08-19T09:52:14;9.07;;;4.30;;
71464;SDS011;59274;49.874;9.154;2022-08-19T09:54:41;7.10;;;4.13;;
71464;SDS011;59274;49.874;9.154;2022-08-19T09:57:06;8.82;;;4.05;;
71464;SDS011;59274;49.874;9.154;2022-08-19T09:59:32;9.27;;;4.07;;
71464;SDS011;59274;49.874;9.154;2022-08-19T10:01:58;7.47;;;4.25;;
71464;SDS011;59274;49.874;9.154;2022-08-19T10:04:24;8.13;;;4.10;;
71464;SDS011;59274;49.874;9.154;2022-08-19T10:07:09;9.90;;;4.78;;
71464;SDS011;59274;49.874;9.154;2022-08-19T10:09:35;8.13;;;4.60;;
71464;SDS011;59274;49.874;9.154;2022-08-19T10:12:01;9.93;;;4.10;;
71464;SDS011;59274;49.874;9.154;2022-08-19T10:14:29;7.00;;;3.45;;
71464;SDS011;59274;49.874;9.154;2022-08-19T10:16:55;7.90;;;3.65;;
71464;SDS011;59274;49.874;9.154;2022-08-19T10:19:21;6.27;;;2.93;;
71464;SDS011;59274;49.874;9.154;2022-08-19T10:21:47;8.52;;;3.13;;
71464;SDS011;59274;49.874;9.154;2022-08-19T10:24:12;6.80;;;3.13;;
71464;SDS011;59274;49.874;9.154;2022-08-19T10:26:39;6.45;;;2.90;;
71464;SDS011;59274;49.874;9.154;2022-08-19T10:29:11;5.50;;;3.00;;
71464;SDS011;59274;49.874;9.154;2022-08-19T10:31:37;4.53;;;2.57;;
71464;SDS011;59274;49.874;9.154;2022-08-19T10:34:03;4.53;;;2.47;;
71464;SDS011;59274;49.874;9.154;2022-08-19T10:36:31;4.83;;;2.50;;
71464;SDS011;59274;49.874;9.154;2022-08-19T10:39:00;5.65;;;3.10;;
71464;SDS011;59274;49.874;9.154;2022-08-19T10:41:30;4.90;;;2.70;;
71464;SDS011;59274;49.874;9.154;2022-08-19T10:43:59;5.75;;;2.80;;
71464;SDS011;59274;49.874;9.154;2022-08-19T10:46:29;5.68;;;2.85;;
71464;SDS011;59274;49.874;9.154;2022-08-19T10:48:59;6.77;;;3.13;;
71464;SDS011;59274;49.874;9.154;2022-08-19T10:51:26;8.43;;;3.20;;
71464;SDS011;59274;49.874;9.154;2022-08-19T10:54:11;7.35;;;3.10;;
71464;SDS011;59274;49.874;9.154;2022-08-19T10:56:36;7.23;;;3.07;;
71464;SDS011;59274;49.874;9.154;2022-08-19T10:59:24;8.25;;;3.20;;
71464;SDS011;59274;49.874;9.154;2022-08-19T11:01:52;5.18;;;2.90;;
71464;SDS011;59274;49.874;9.154;2022-08-19T11:04:19;5.93;;;3.03;;
71464;SDS011;59274;49.874;9.154;2022-08-19T11:06:47;6.22;;;3.17;;
71464;SDS011;59274;49.874;9.154;2022-08-19T11:09:14;6.13;;;3.05;;
71464;SDS011;59274;49.874;9.154;2022-08-19T11:11:42;5.88;;;2.95;;
71464;SDS011;59274;49.874;9.154;2022-08-19T11:14:09;6.03;;;2.90;;
71464;SDS011;59274;49.874;9.154;2022-08-19T11:16:39;4.72;;;3.10;;
71464;SDS011;59274;49.874;9.154;2022-08-19T11:19:06;5.15;;;3.30;;
71464;SDS011;59274;49.874;9.154;2022-08-19T11:21:35;6.87;;;3.23;;
71464;SDS011;59274;49.874;9.154;2022-08-19T11:24:06;7.30;;;3.38;;
71464;SDS011;59274;49.874;9.154;2022-08-19T11:26:38;6.50;;;3.22;;
71464;SDS011;59274;49.874;9.154;2022-08-19T11:29:05;6.07;;;3.45;;
71464;SDS011;59274;49.874;9.154;2022-08-19T11:31:36;6.70;;;3.42;;
71464;SDS011;59274;49.874;9.154;2022-08-19T11:34:05;5.80;;;3.57;;
71464;SDS011;59274;49.874;9.154;2022-08-19T11:36:36;7.35;;;3.45;;
71464;SDS011;59274;49.874;9.154;2022-08-19T11:39:04;6.00;;;3.65;;
71464;SDS011;59274;49.874;9.154;2022-08-19T11:41:32;7.13;;;3.45;;
71464;SDS011;59274;49.874;9.154;2022-08-19T11:43:57;6.10;;;3.77;;
71464;SDS011;59274;49.874;9.154;2022-08-19T11:46:24;7.85;;;3.47;;
71464;SDS011;59274;49.874;9.154;2022-08-19T11:48:52;8.85;;;3.85;;
71464;SDS011;59274;49.874;9.154;2022-08-19T11:51:19;8.00;;;3.80;;
71464;SDS011;59274;49.874;9.154;2022-08-19T11:53:46;6.13;;;3.63;;
71464;SDS011;59274;49.874;9.154;2022-08-19T11:56:12;7.60;;;3.80;;
71464;SDS011;59274;49.874;9.154;2022-08-19T11:58:38;7.03;;;3.97;;
71464;SDS011;59274;49.874;9.154;2022-08-19T12:01:05;7.07;;;3.92;;
71464;SDS011;59274;49.874;9.154;2022-08-19T12:03:32;6.95;;;3.63;;
71464;SDS011;59274;49.874;9.154;2022-08-19T12:06:02;6.67;;;3.60;;
71464;SDS011;59274;49.874;9.154;2022-08-19T12:08:29;6.25;;;3.88;;
71464;SDS011;59274;49.874;9.154;2022-08-19T12:10:55;7.53;;;4.00;;
71464;SDS011;59274;49.874;9.154;2022-08-19T12:13:21;6.70;;;3.97;;
71464;SDS011;59274;49.874;9.154;2022-08-19T12:15:47;7.63;;;4.13;;
71464;SDS011;59274;49.874;9.154;2022-08-19T12:18:12;8.60;;;3.93;;
71464;SDS011;59274;49.874;9.154;2022-08-19T12:20:41;8.25;;;4.05;;
71464;SDS011;59274;49.874;9.154;2022-08-19T12:23:09;6.45;;;4.22;;
71464;SDS011;59274;49.874;9.154;2022-08-19T12:25:36;7.40;;;4.18;;
71464;SDS011;59274;49.874;9.154;2022-08-19T12:28:03;10.87;;;4.80;;
71464;SDS011;59274;49.874;9.154;2022-08-19T12:30:28;7.18;;;3.75;;
71464;SDS011;59274;49.874;9.154;2022-08-19T12:32:54;7.43;;;4.38;;
71464;SDS011;59274;49.874;9.154;2022-08-19T12:35:20;7.63;;;4.30;;
71464;SDS011;59274;49.874;9.154;2022-08-19T12:37:47;7.47;;;3.90;;
71464;SDS011;59274;49.874;9.154;2022-08-19T12:40:14;7.68;;;4.05;;
71464;SDS011;59274;49.874;9.154;2022-08-19T12:42:41;6.93;;;3.80;;
71464;SDS011;59274;49.874;9.154;2022-08-19T12:45:08;9.02;;;3.90;;
71464;SDS011;59274;49.874;9.154;2022-08-19T12:47:38;5.97;;;3.90;;
71464;SDS011;59274;49.874;9.154;2022-08-19T12:50:04;7.68;;;4.00;;
71464;SDS011;59274;49.874;9.154;2022-08-19T12:52:35;8.15;;;4.20;;
71464;SDS011;59274;49.874;9.154;2022-08-19T12:55:07;6.17;;;3.63;;
71464;SDS011;59274;49.874;9.154;2022-08-19T12:57:33;7.32;;;4.00;;
71464;SDS011;59274;49.874;9.154;2022-08-19T13:00:21;8.27;;;3.63;;
71464;SDS011;59274;49.874;9.154;2022-08-19T13:02:49;7.30;;;3.85;;
71464;SDS011;59274;49.874;9.154;2022-08-19T13:05:19;7.63;;;3.70;;
71464;SDS011;59274;49.874;9.154;2022-08-19T13:07:50;6.50;;;3.80;;
71464;SDS011;59274;49.874;9.154;2022-08-19T13:10:20;7.53;;;3.67;;
71464;SDS011;59274;49.874;9.154;2022-08-19T13:12:47;7.35;;;3.78;;
71464;SDS011;59274;49.874;9.154;2022-08-19T13:15:15;7.38;;;3.88;;
71464;SDS011;59274;49.874;9.154;2022-08-19T13:17:46;6.07;;;3.47;;
71464;SDS011;59274;49.874;9.154;2022-08-19T13:20:17;7.03;;;4.00;;
71464;SDS011;59274;49.874;9.154;2022-08-19T13:22:44;6.10;;;3.60;;
71464;SDS011;59274;49.874;9.154;2022-08-19T13:25:11;6.78;;;3.70;;
71464;SDS011;59274;49.874;9.154;2022-08-19T13:27:37;6.93;;;3.70;;
71464;SDS011;59274;49.874;9.154;2022-08-19T13:30:05;7.13;;;3.80;;
71464;SDS011;59274;49.874;9.154;2022-08-19T13:32:52;7.30;;;3.57;;
71464;SDS011;59274;49.874;9.154;2022-08-19T13:35:36;6.40;;;3.70;;
71464;SDS011;59274;49.874;9.154;2022-08-19T13:38:02;5.97;;;3.58;;
71464;SDS011;59274;49.874;9.154;2022-08-19T13:40:30;6.20;;;3.55;;
71464;SDS011;59274;49.874;9.154;2022-08-19T13:42:59;6.50;;;3.70;;
71464;SDS011;59274;49.874;9.154;2022-08-19T13:45:27;6.10;;;4.10;;
71464;SDS011;59274;49.874;9.154;2022-08-19T13:47:54;6.00;;;3.50;;
71464;SDS011;59274;49.874;9.154;2022-08-19T13:50:23;7.72;;;3.85;;
71464;SDS011;59274;49.874;9.154;2022-08-19T13:52:52;7.40;;;3.38;;
71464;SDS011;59274;49.874;9.154;2022-08-19T13:55:18;7.68;;;4.00;;
71464;SDS011;59274;49.874;9.154;2022-08-19T13:57:49;6.70;;;4.03;;
71464;SDS011;59274;49.874;9.154;2022-08-19T14:00:19;6.35;;;3.60;;
71464;SDS011;59274;49.874;9.154;2022-08-19T14:02:46;7.53;;;3.90;;
71464;SDS011;59274;49.874;9.154;2022-08-19T14:05:13;7.32;;;3.40;;
71464;SDS011;59274;49.874;9.154;2022-08-19T14:07:40;7.63;;;3.60;;
71464;SDS011;59274;49.874;9.154;2022-08-19T14:10:07;5.40;;;3.13;;
71464;SDS011;59274;49.874;9.154;2022-08-19T14:12:34;5.78;;;3.85;;
71464;SDS011;59274;49.874;9.154;2022-08-19T14:15:00;7.35;;;4.90;;
71464;SDS011;59274;49.874;9.154;2022-08-19T14:17:27;6.13;;;3.80;;
71464;SDS011;59274;49.874;9.154;2022-08-19T14:19:57;6.15;;;3.75;;
71464;SDS011;59274;49.874;9.154;2022-08-19T14:22:24;6.40;;;3.30;;
71464;SDS011;59274;49.874;9.154;2022-08-19T14:24:49;6.47;;;3.40;;
71464;SDS011;59274;49.874;9.154;2022-08-19T14:27:15;5.80;;;3.50;;
71464;SDS011;59274;49.874;9.154;2022-08-19T14:29:40;5.87;;;3.63;;
71464;SDS011;59274;49.874;9.154;2022-08-19T14:32:06;6.33;;;3.57;;
71464;SDS011;59274;49.874;9.154;2022-08-19T14:34:31;7.00;;;3.85;;
71464;SDS011;59274;49.874;9.154;2022-08-19T14:36:58;6.43;;;4.03;;
71464;SDS011;59274;49.874;9.154;2022-08-19T14:39:24;7.70;;;4.20;;
71464;SDS011;59274;49.874;9.154;2022-08-19T14:41:50;6.32;;;3.70;;
71464;SDS011;59274;49.874;9.154;2022-08-19T14:44:15;6.53;;;3.83;;
71464;SDS011;59274;49.874;9.154;2022-08-19T14:46:41;6.83;;;4.10;;
71464;SDS011;59274;49.874;9.154;2022-08-19T14:49:06;7.90;;;4.00;;